Time;durP1;ratioP1;P1;durP2;ratioP2;P2;SDS_P1;SDS_P2;PMS_P1;PMS_P2;Temp;Humidity;BMP_temperature;BMP_pressure;BME280_temperature;BME280_humidity;BME280_pressure;Samples;Min_cycle;Max_cycle;Signal;HPM_P1;HPM_P2
2023/03/30 00:01:51;;;;;;;6.15;2.05;;;;;;;15.63;95.09;100555.31;5027340;28;20954;-63
2023/03/30 00:04:17;;;;;;;6.10;2.10;;;;;;;15.58;95.92;100560.06;5027152;28;20030;-62
2023/03/30 00:06:42;;;;;;;8.27;2.47;;;;;;;15.57;96.70;100550.38;5026678;28;20046;-62
2023/03/30 00:09:08;;;;;;;6.50;2.13;;;;;;;15.44;97.24;100555.56;5024801;28;20079;-63
2023/03/30 00:11:34;;;;;;;6.88;1.98;;;;;;;15.38;97.58;100534.69;5026968;28;20373;-58
2023/03/30 00:14:00;;;;;;;7.32;2.38;;;;;;;15.29;98.22;100542.25;5027049;28;20368;-62
2023/03/30 00:16:26;;;;;;;4.95;2.20;;;;;;;15.30;98.14;100529.84;5027165;28;20140;-63
2023/03/30 00:18:51;;;;;;;5.00;2.00;;;;;;;15.36;98.65;100542.75;5026535;28;20121;-60
2023/03/30 00:21:16;;;;;;;3.95;2.40;;;;;;;15.23;99.50;100533.81;5026803;28;20567;-61
2023/03/30 00:23:45;;;;;;;6.50;2.20;;;;;;;15.26;99.86;100550.38;5025980;28;20053;-63
2023/03/30 00:26:11;;;;;;;8.90;2.80;;;;;;;15.07;100.00;100539.13;5026433;28;20262;-64
2023/03/30 00:28:37;;;;;;;6.43;2.47;;;;;;;15.08;100.00;100546.16;5026821;28;20325;-62
2023/03/30 00:31:02;;;;;;;8.23;2.08;;;;;;;15.11;100.00;100549.47;5026381;28;20021;-62
2023/03/30 00:33:27;;;;;;;7.47;2.47;;;;;;;15.06;100.00;100550.69;5026534;28;20113;-60
2023/03/30 00:35:57;;;;;;;5.80;2.45;;;;;;;14.99;100.00;100556.34;5026697;28;20480;-62
2023/03/30 00:38:24;;;;;;;6.93;2.63;;;;;;;14.91;100.00;100559.44;5025213;28;20083;-58
2023/03/30 00:40:56;;;;;;;4.53;2.65;;;;;;;14.82;100.00;100548.50;5026601;28;20033;-60
2023/03/30 00:43:21;;;;;;;5.28;3.13;;;;;;;14.71;100.00;100541.97;5025903;28;20021;-58
2023/03/30 00:45:47;;;;;;;7.93;2.70;;;;;;;14.56;100.00;100533.06;5026340;28;20026;-61
2023/03/30 00:48:16;;;;;;;9.63;2.80;;;;;;;14.51;100.00;100543.09;5025714;28;20030;-64
2023/03/30 00:50:43;;;;;;;;;;;;;;;14.54;100.00;100540.25;5008993;28;20388;-64
2023/03/30 00:53:18;;;;;;;9.27;3.15;;;;;;;14.58;100.00;100528.56;5024967;28;19935;-60
2023/03/30 00:55:45;;;;;;;5.80;2.78;;;;;;;14.50;100.00;100522.81;5025879;28;20026;-60
2023/03/30 00:58:10;;;;;;;7.70;3.03;;;;;;;14.46;100.00;100530.09;5025766;28;20446;-64
2023/03/30 01:00:39;;;;;;;10.15;3.20;;;;;;;14.47;100.00;100538.88;5008403;28;20030;-61
2023/03/30 01:03:11;;;;;;;4.78;2.70;;;;;;;14.51;100.00;100535.97;5026271;28;20031;-62
2023/03/30 01:05:38;;;;;;;5.55;2.70;;;;;;;14.55;100.00;100530.50;5025819;28;20022;-59
2023/03/30 01:08:06;;;;;;;7.40;2.58;;;;;;;14.58;100.00;100528.56;5007278;28;20072;-57
2023/03/30 01:10:32;;;;;;;12.45;3.00;;;;;;;14.59;100.00;100522.31;5008466;28;20424;-61
2023/03/30 01:12:57;;;;;;;7.85;2.38;;;;;;;14.62;100.00;100524.78;5025828;28;20047;-60
2023/03/30 01:15:24;;;;;;;6.60;2.22;;;;;;;14.58;100.00;100525.91;5008032;28;20029;-59
2023/03/30 01:17:52;;;;;;;4.47;1.88;;;;;;;14.57;100.00;100513.56;5025761;28;20039;-62
2023/03/30 01:20:17;;;;;;;8.75;2.25;;;;;;;14.55;100.00;100514.59;5023767;28;20040;-64
2023/03/30 01:22:54;;;;;;;6.80;1.92;;;;;;;14.56;100.00;100525.13;5024579;28;20112;-61
2023/03/30 01:25:58;;;;;;;5.18;1.80;;;;;;;14.51;100.00;100519.25;5025450;28;20519;-63
2023/03/30 01:28:46;;;;;;;12.52;2.45;;;;;;;14.50;100.00;100510.41;5025496;28;20140;-60
2023/03/30 01:31:33;;;;;;;5.70;2.10;;;;;;;14.47;100.00;100492.03;5025225;28;20806;-63
2023/03/30 01:34:30;;;;;;;6.05;2.20;;;;;;;14.44;100.00;100496.63;5025350;28;20021;-62
2023/03/30 01:37:10;;;;;;;6.05;2.30;;;;;;;14.46;100.00;100487.69;5025681;28;20120;-60
2023/03/30 01:39:53;;;;;;;6.10;2.50;;;;;;;14.43;100.00;100490.50;5025038;28;20099;-62
2023/03/30 01:42:23;;;;;;;8.57;2.75;;;;;;;14.40;100.00;100480.94;5024905;28;20353;-61
2023/03/30 01:44:53;;;;;;;8.40;2.58;;;;;;;14.48;100.00;100477.00;5007708;28;20029;-62
2023/03/30 01:47:52;;;;;;;7.88;2.47;;;;;;;14.47;100.00;100480.56;5025036;28;20741;-60
2023/03/30 01:50:24;;;;;;;13.00;2.60;;;;;;;14.39;100.00;100468.59;5007195;28;20119;-60
2023/03/30 01:52:59;;;;;;;8.38;2.30;;;;;;;14.42;100.00;100470.22;5007093;28;20341;-62
2023/03/30 01:55:35;;;;;;;8.35;2.55;;;;;;;14.39;100.00;100468.59;5025282;28;20025;-59
2023/03/30 01:58:12;;;;;;;9.25;2.33;;;;;;;14.37;100.00;100467.84;5006964;28;20052;-59
2023/03/30 02:00:39;;;;;;;7.97;2.90;;;;;;;14.30;100.00;100473.56;5007365;28;20060;-57
2023/03/30 02:03:07;;;;;;;8.57;2.28;;;;;;;14.25;100.00;100473.81;5007663;28;20022;-60
2023/03/30 02:05:33;;;;;;;8.45;2.45;;;;;;;14.16;100.00;100475.19;5007153;28;20041;-62
2023/03/30 02:08:11;;;;;;;6.22;2.40;;;;;;;14.22;100.00;100477.50;5006206;28;20056;-59
2023/03/30 02:10:37;;;;;;;9.13;2.50;;;;;;;14.19;100.00;100482.09;4990849;28;20028;-59
2023/03/30 02:13:03;;;;;;;7.78;2.60;;;;;;;14.12;100.00;100486.91;5024602;28;20557;-61
2023/03/30 02:15:36;;;;;;;13.35;3.00;;;;;;;14.09;100.00;100482.59;5024483;28;20029;-60
2023/03/30 02:18:02;;;;;;;7.82;2.60;;;;;;;14.05;100.00;100485.53;5006861;28;20020;-62
2023/03/30 02:20:28;;;;;;;9.15;2.35;;;;;;;14.07;100.00;100475.69;5025011;28;20026;-60
2023/03/30 02:22:54;;;;;;;8.05;2.20;;;;;;;14.20;100.00;100491.75;5006644;28;20029;-59
2023/03/30 02:25:19;;;;;;;9.13;2.60;;;;;;;14.21;100.00;100490.84;5024560;28;20517;-61
2023/03/30 02:27:45;;;;;;;13.00;2.10;;;;;;;14.19;100.00;100496.22;5006829;28;20297;-60
2023/03/30 02:30:11;;;;;;;13.20;2.58;;;;;;;14.12;100.00;100498.34;5024415;28;20033;-61
2023/03/30 02:32:52;;;;;;;8.00;2.47;;;;;;;14.17;100.00;100491.94;5028262;28;20040;-62
2023/03/30 02:35:40;;;;;;;6.43;2.40;;;;;;;14.22;100.00;100471.34;5010750;28;20032;-63
2023/03/30 02:38:43;;;;;;;6.77;2.10;;;;;;;14.11;100.00;100475.44;5010380;28;20025;-60
2023/03/30 02:41:43;;;;;;;6.78;2.03;;;;;;;14.12;100.00;100479.78;5010481;28;20506;-60
2023/03/30 02:44:37;;;;;;;7.72;2.28;;;;;;;14.05;100.00;100459.88;5028418;28;20457;-63
2023/03/30 02:47:18;;;;;;;7.72;2.08;;;;;;;14.09;100.00;100460.56;5000971;28;20034;-61
2023/03/30 02:49:58;;;;;;;8.32;1.90;;;;;;;14.15;100.00;100458.41;5010981;28;20049;-60
2023/03/30 02:52:51;;;;;;;6.82;1.75;;;;;;;14.18;100.00;100469.81;5028054;28;20445;-60
2023/03/30 02:55:18;;;;;;;5.28;1.52;;;;;;;14.12;100.00;100471.84;5028435;28;20085;-61
2023/03/30 02:58:06;;;;;;;6.75;1.92;;;;;;;14.09;100.00;100461.41;5010605;28;20010;-62
2023/03/30 03:00:43;;;;;;;5.43;1.70;;;;;;;14.01;100.00;100460.97;5010725;28;20021;-61
2023/03/30 03:03:22;;;;;;;6.95;2.03;;;;;;;14.05;100.00;100453.75;5027696;28;20128;-61
2023/03/30 03:05:52;;;;;;;8.27;1.80;;;;;;;14.02;100.00;100462.69;5010884;28;20041;-61
2023/03/30 03:08:22;;;;;;;7.88;2.00;;;;;;;14.05;100.00;100457.22;5009878;28;20037;-60
2023/03/30 03:10:48;;;;;;;5.43;1.85;;;;;;;14.07;100.00;100450.06;5010497;28;20522;-61
2023/03/30 03:13:15;;;;;;;5.53;1.63;;;;;;;14.00;100.00;100457.47;5027758;28;20117;-62
2023/03/30 03:15:44;;;;;;;5.50;1.73;;;;;;;13.90;100.00;100457.13;5028010;28;20036;-62
2023/03/30 03:18:09;;;;;;;5.00;1.92;;;;;;;13.95;100.00;100451.59;5027793;28;20080;-62
2023/03/30 03:20:35;;;;;;;5.55;1.67;;;;;;;13.90;100.00;100453.63;5028197;28;20052;-59
2023/03/30 03:23:00;;;;;;;10.20;1.95;;;;;;;13.95;100.00;100456.00;5027919;28;20025;-61
2023/03/30 03:25:26;;;;;;;6.53;1.80;;;;;;;13.97;100.00;100452.34;5028205;28;20033;-58
2023/03/30 03:27:51;;;;;;;6.68;1.60;;;;;;;14.04;100.00;100447.56;5028080;28;20028;-57
2023/03/30 03:30:17;;;;;;;5.22;1.90;;;;;;;14.07;100.00;100443.91;5027712;28;20101;-62
2023/03/30 03:32:42;;;;;;;7.38;1.67;;;;;;;13.95;100.00;100437.47;5027550;28;20063;-63
2023/03/30 03:35:08;;;;;;;6.25;1.75;;;;;;;14.04;100.00;100444.94;5027764;28;20025;-59
2023/03/30 03:37:33;;;;;;;9.88;2.05;;;;;;;14.03;100.00;100435.28;5027391;28;20526;-62
2023/03/30 03:39:59;;;;;;;6.72;2.10;;;;;;;14.12;100.00;100445.34;5027485;28;20527;-61
2023/03/30 03:42:24;;;;;;;12.10;2.60;;;;;;;13.90;100.00;100445.66;5010479;28;20057;-59
2023/03/30 03:44:50;;;;;;;11.50;2.42;;;;;;;13.97;100.00;100449.69;5027782;28;20410;-61
2023/03/30 03:47:15;;;;;;;11.43;2.17;;;;;;;13.99;100.00;100431.06;5027454;28;20386;-62
2023/03/30 03:49:41;;;;;;;10.07;2.17;;;;;;;13.97;100.00;100436.44;5027426;28;20100;-59
2023/03/30 03:52:06;;;;;;;10.38;1.90;;;;;;;13.94;100.00;100443.72;5026377;28;20457;-62
2023/03/30 03:54:31;;;;;;;8.63;2.00;;;;;;;13.83;100.00;100442.50;5027718;28;20511;-64
2023/03/30 03:56:57;;;;;;;13.95;2.30;;;;;;;13.92;100.00;100437.63;5009670;28;20112;-58
2023/03/30 03:59:22;;;;;;;13.95;2.90;;;;;;;13.81;100.00;100428.47;5027127;28;20354;-64
2023/03/30 04:01:47;;;;;;;13.10;2.75;;;;;;;13.83;100.00;100441.66;5027302;28;20882;-62
2023/03/30 04:04:13;;;;;;;8.95;2.05;;;;;;;13.80;100.00;100447.97;5026778;28;20056;-59
2023/03/30 04:06:38;;;;;;;11.20;2.45;;;;;;;13.80;100.00;100449.75;5009279;28;20038;-58
2023/03/30 04:09:04;;;;;;;11.55;2.13;;;;;;;13.74;100.00;100451.81;5025833;28;20022;-63
2023/03/30 04:11:29;;;;;;;16.20;2.30;;;;;;;13.69;100.00;100437.13;5027153;28;20030;-59
2023/03/30 04:13:54;;;;;;;16.85;2.78;;;;;;;13.68;100.00;100441.53;5027276;28;20057;-63
2023/03/30 04:16:20;;;;;;;11.13;2.80;;;;;;;13.64;100.00;100437.34;5026546;28;20029;-58
2023/03/30 04:18:45;;;;;;;18.08;3.30;;;;;;;13.51;100.00;100450.38;5027008;28;20022;-59
2023/03/30 04:21:11;;;;;;;15.60;2.55;;;;;;;13.49;100.00;100428.41;5026781;28;20029;-61
2023/03/30 04:23:38;;;;;;;20.17;3.58;;;;;;;13.27;100.00;100440.09;5008062;28;20507;-59
2023/03/30 04:26:05;;;;;;;18.15;3.28;;;;;;;13.11;100.00;100432.97;5008860;28;20030;-60
2023/03/30 04:28:32;;;;;;;19.13;3.08;;;;;;;13.00;100.00;100440.56;5026725;28;20548;-61
2023/03/30 04:31:03;;;;;;;17.95;3.28;;;;;;;12.86;100.00;100443.94;5027650;28;20029;-61
2023/03/30 04:33:28;;;;;;;12.27;2.67;;;;;;;12.89;100.00;100439.31;5026688;28;20105;-59
2023/03/30 04:35:54;;;;;;;15.65;2.78;;;;;;;12.74;100.00;100438.28;5026688;28;20021;-62
2023/03/30 04:38:22;;;;;;;21.85;4.13;;;;;;;12.73;100.00;100435.72;5025445;28;20057;-60
2023/03/30 04:40:49;;;;;;;27.02;3.45;;;;;;;12.72;100.00;100434.03;5026663;28;20025;-62
2023/03/30 04:43:18;;;;;;;22.45;3.65;;;;;;;12.71;100.00;100424.38;5026276;28;20063;-63
2023/03/30 04:45:50;;;;;;;18.35;3.20;;;;;;;12.65;100.00;100436.13;5026834;28;20070;-62
2023/03/30 04:48:16;;;;;;;21.75;3.70;;;;;;;12.62;100.00;100417.78;5026258;28;20472;-63
2023/03/30 04:50:42;;;;;;;27.48;4.28;;;;;;;12.52;100.00;100420.00;5026209;28;20022;-61
2023/03/30 04:53:08;;;;;;;20.65;3.72;;;;;;;12.47;100.00;100409.69;5024736;28;20112;-62
2023/03/30 04:55:34;;;;;;;22.77;3.83;;;;;;;12.38;100.00;100410.94;5008164;28;20029;-58
2023/03/30 04:57:59;;;;;;;19.92;4.13;;;;;;;12.31;100.00;100411.34;5026309;28;20021;-63
2023/03/30 05:00:26;;;;;;;17.70;3.85;;;;;;;12.27;100.00;100410.63;5026208;28;20032;-62
2023/03/30 05:02:51;;;;;;;19.80;3.40;;;;;;;12.25;100.00;100402.78;5026053;28;20021;-58
2023/03/30 05:05:16;;;;;;;26.42;3.83;;;;;;;12.17;100.00;100412.00;5025804;28;20025;-63
2023/03/30 05:07:42;;;;;;;35.15;4.07;;;;;;;12.11;100.00;100408.72;5024928;28;20453;-58
2023/03/30 05:10:07;;;;;;;27.25;5.03;;;;;;;12.03;100.00;100412.59;5025482;28;20482;-59
2023/03/30 05:12:32;;;;;;;21.50;4.03;;;;;;;11.99;100.00;100393.44;5025978;28;20032;-64
2023/03/30 05:14:58;;;;;;;28.90;4.05;;;;;;;11.97;100.00;100406.69;5025999;28;20448;-63
2023/03/30 05:17:23;;;;;;;23.38;4.20;;;;;;;12.10;100.00;100408.81;5008125;28;20552;-60
2023/03/30 05:19:48;;;;;;;19.63;3.75;;;;;;;11.94;100.00;100377.78;5026142;28;20031;-60
2023/03/30 05:22:14;;;;;;;17.02;3.58;;;;;;;11.99;100.00;100402.22;5024429;28;20229;-61
2023/03/30 05:24:39;;;;;;;24.10;4.45;;;;;;;12.04;100.00;100417.81;5025913;28;20479;-59
2023/03/30 05:27:05;;;;;;;26.75;4.00;;;;;;;12.00;100.00;100409.19;5025575;28;20040;-59
2023/03/30 05:29:31;;;;;;;24.20;4.05;;;;;;;11.94;100.00;100422.69;5025346;28;20108;-61
2023/03/30 05:31:56;;;;;;;24.15;4.05;;;;;;;11.93;100.00;100428.03;5025900;28;20087;-59
2023/03/30 05:34:21;;;;;;;28.88;4.72;;;;;;;11.98;100.00;100421.59;5025494;28;20463;-58
2023/03/30 05:36:47;;;;;;;23.33;4.07;;;;;;;11.83;100.00;100428.44;5024727;28;20018;-61
2023/03/30 05:39:13;;;;;;;29.75;4.50;;;;;;;11.92;100.00;100421.03;5025060;28;20029;-60
2023/03/30 05:41:38;;;;;;;32.00;4.18;;;;;;;11.77;100.00;100434.00;5024176;28;20499;-63
2023/03/30 05:44:03;;;;;;;23.50;4.03;;;;;;;11.84;100.00;100434.59;5024957;28;20105;-62
2023/03/30 05:46:29;;;;;;;25.30;3.80;;;;;;;11.82;100.00;100421.47;5007570;28;20021;-62
2023/03/30 05:48:55;;;;;;;22.00;4.55;;;;;;;11.81;100.00;100442.66;5025904;28;20026;-62
2023/03/30 05:51:20;;;;;;;25.38;3.95;;;;;;;11.97;100.00;100429.59;5024494;28;20480;-60
2023/03/30 05:53:46;;;;;;;31.63;4.18;;;;;;;11.90;100.00;100446.66;5024361;28;20361;-62
2023/03/30 05:56:11;;;;;;;26.25;4.43;;;;;;;11.94;100.00;100445.56;5025008;28;20076;-60
2023/03/30 05:58:37;;;;;;;27.55;4.68;;;;;;;11.96;100.00;100456.94;5025188;28;20021;-61
2023/03/30 06:01:04;;;;;;;23.38;4.38;;;;;;;12.10;100.00;100448.41;5024727;28;20072;-60
2023/03/30 06:03:30;;;;;;;23.27;4.72;;;;;;;12.07;100.00;100462.59;5025186;28;20411;-59
2023/03/30 06:05:55;;;;;;;30.90;4.63;;;;;;;12.09;100.00;100468.69;5024081;28;20018;-62
2023/03/30 06:08:20;;;;;;;32.38;5.20;;;;;;;12.17;100.00;100460.41;5023871;28;20026;-64
2023/03/30 06:10:53;;;;;;;28.85;4.70;;;;;;;12.20;100.00;100457.63;5024789;28;20036;-59
2023/03/30 06:13:19;;;;;;;39.38;5.05;;;;;;;12.20;100.00;100481.41;5006470;28;20025;-62
2023/03/30 06:15:44;;;;;;;32.42;5.13;;;;;;;12.23;100.00;100462.75;5025071;28;20025;-59
2023/03/30 06:18:09;;;;;;;32.38;5.07;;;;;;;12.29;100.00;100509.16;5024622;28;20033;-62
2023/03/30 06:20:35;;;;;;;25.73;4.13;;;;;;;12.21;100.00;100463.75;5024887;28;20056;-63
2023/03/30 06:23:00;;;;;;;27.35;4.50;;;;;;;12.29;100.00;100482.75;5023931;28;20034;-57
2023/03/30 06:25:25;;;;;;;33.08;5.45;;;;;;;12.33;100.00;100479.03;5024594;28;20432;-63
2023/03/30 06:27:51;;;;;;;31.23;5.53;;;;;;;12.26;100.00;100475.78;5024723;28;20428;-60
2023/03/30 06:30:16;;;;;;;25.42;4.20;;;;;;;12.33;100.00;100481.66;5024550;28;20473;-62
2023/03/30 06:32:42;;;;;;;34.15;5.05;;;;;;;12.34;100.00;100483.38;5024620;28;20036;-64
2023/03/30 06:35:07;;;;;;;30.60;5.63;;;;;;;12.40;100.00;100484.84;5024332;28;20028;-61
2023/03/30 06:37:35;;;;;;;37.65;4.90;;;;;;;12.38;100.00;100486.75;5023978;28;20026;-62
2023/03/30 06:40:07;;;;;;;36.45;5.30;;;;;;;12.30;100.00;100473.88;5024316;28;20061;-62
2023/03/30 06:42:32;;;;;;;22.38;4.40;;;;;;;12.42;100.00;100498.00;5024936;28;20048;-60
2023/03/30 06:44:58;;;;;;;31.42;4.75;;;;;;;12.47;100.00;100483.66;5025171;28;20030;-63
2023/03/30 06:47:23;;;;;;;23.33;4.28;;;;;;;12.43;100.00;100489.16;5024228;28;20093;-63
2023/03/30 06:49:48;;;;;;;33.60;5.18;;;;;;;12.39;100.00;100504.28;5024944;28;20029;-60
2023/03/30 06:52:14;;;;;;;25.35;4.25;;;;;;;12.26;100.00;100504.84;5005552;28;20036;-63
2023/03/30 06:54:39;;;;;;;24.45;5.82;;;;;;;12.31;100.00;100507.28;5022736;28;20040;-63
2023/03/30 06:57:05;;;;;;;35.78;6.43;;;;;;;12.35;100.00;100519.44;5024691;28;20029;-62
2023/03/30 06:59:32;;;;;;;41.05;6.25;;;;;;;12.28;100.00;100518.00;5024529;28;20029;-63
2023/03/30 07:01:58;;;;;;;32.78;5.50;;;;;;;12.40;100.00;100505.16;5024916;28;20053;-63
2023/03/30 07:04:23;;;;;;;38.83;6.00;;;;;;;12.35;100.00;100514.16;5024423;28;20420;-62
2023/03/30 07:06:48;;;;;;;35.05;5.97;;;;;;;12.44;100.00;100522.56;5023539;28;20120;-62
2023/03/30 07:09:14;;;;;;;36.20;5.20;;;;;;;12.44;100.00;100517.28;5023704;28;20550;-62
2023/03/30 07:11:39;;;;;;;32.05;5.00;;;;;;;12.42;100.00;100519.13;5024160;28;20057;-59
2023/03/30 07:14:05;;;;;;;39.22;5.72;;;;;;;12.54;100.00;100534.44;5024432;28;20057;-63
2023/03/30 07:16:30;;;;;;;37.03;5.20;;;;;;;12.62;100.00;100540.19;5024613;28;20024;-64
2023/03/30 07:18:55;;;;;;;36.50;6.05;;;;;;;12.73;100.00;100520.31;5027799;28;20476;-60
2023/03/30 07:21:21;;;;;;;31.60;5.60;;;;;;;12.86;100.00;100534.66;5027805;28;20107;-63
2023/03/30 07:23:46;;;;;;;36.03;6.25;;;;;;;12.95;100.00;100532.50;5009493;28;20526;-62
2023/03/30 07:26:12;;;;;;;28.25;5.25;;;;;;;12.93;100.00;100539.66;5027695;28;20022;-60
2023/03/30 07:28:39;;;;;;;32.50;5.00;;;;;;;13.05;100.00;100544.34;5010900;28;20455;-63
2023/03/30 07:31:05;;;;;;;37.88;5.97;;;;;;;13.03;100.00;100543.56;5012623;28;20056;-65
2023/03/30 07:33:31;;;;;;;31.48;4.90;;;;;;;13.09;100.00;100530.03;5030784;28;20034;-63
2023/03/30 07:35:56;;;;;;;39.97;6.07;;;;;;;13.00;100.00;100556.94;5028977;28;20526;-61
2023/03/30 07:38:22;;;;;;;31.38;5.88;;;;;;;12.95;100.00;100558.97;5026630;28;20099;-63
2023/03/30 07:40:47;;;;;;;42.92;6.63;;;;;;;12.91;100.00;100550.31;5027181;28;20021;-64
2023/03/30 07:43:12;;;;;;;39.38;6.57;;;;;;;12.94;100.00;100554.63;5027407;28;20025;-61
2023/03/30 07:45:38;;;;;;;34.90;6.07;;;;;;;12.95;100.00;100549.25;5028080;28;20025;-64
2023/03/30 07:48:03;;;;;;;37.55;5.80;;;;;;;12.80;100.00;100555.28;5027177;28;20383;-59
2023/03/30 07:50:29;;;;;;;30.98;6.28;;;;;;;12.96;100.00;100561.53;5027299;28;20476;-61
2023/03/30 07:52:55;;;;;;;37.83;5.55;;;;;;;12.88;100.00;100564.53;5026956;28;20044;-64
2023/03/30 07:55:20;;;;;;;45.00;6.45;;;;;;;13.09;100.00;100572.38;5026791;28;20329;-63
2023/03/30 07:57:46;;;;;;;46.10;7.35;;;;;;;12.87;100.00;100580.47;5027645;28;20053;-61
2023/03/30 08:00:13;;;;;;;39.47;5.80;;;;;;;13.12;100.00;100558.13;5027532;28;20025;-64
2023/03/30 08:02:38;;;;;;;36.65;5.75;;;;;;;13.07;100.00;100568.97;5027076;28;20029;-63
2023/03/30 08:05:04;;;;;;;32.17;6.18;;;;;;;13.03;100.00;100551.50;5026757;28;20379;-60
2023/03/30 08:07:31;;;;;;;35.55;5.75;;;;;;;12.96;100.00;100572.13;5025972;28;20156;-60
2023/03/30 08:09:56;;;;;;;37.35;5.03;;;;;;;12.97;100.00;100579.09;5028098;28;20026;-65
2023/03/30 08:12:21;;;;;;;37.80;6.32;;;;;;;12.95;100.00;100573.06;5026749;28;20400;-60
2023/03/30 08:14:47;;;;;;;35.83;5.32;;;;;;;13.07;100.00;100573.38;5027509;28;20025;-61
2023/03/30 08:17:12;;;;;;;35.13;5.78;;;;;;;13.17;100.00;100585.22;5027377;28;20075;-64
2023/03/30 08:19:37;;;;;;;36.85;6.25;;;;;;;13.47;100.00;100581.13;5027198;28;20515;-62
2023/03/30 08:22:03;;;;;;;40.55;6.68;;;;;;;13.17;100.00;100594.94;5026145;28;20387;-61
2023/03/30 08:24:29;;;;;;;35.08;6.35;;;;;;;12.97;100.00;100594.97;5009472;28;20464;-62
2023/03/30 08:26:54;;;;;;;37.67;6.38;;;;;;;13.09;100.00;100580.28;5026840;28;20338;-63
2023/03/30 08:29:20;;;;;;;36.22;6.32;;;;;;;13.02;100.00;100589.47;5025978;28;20108;-58
2023/03/30 08:31:46;;;;;;;39.95;6.25;;;;;;;13.06;100.00;100587.53;5026841;28;20026;-64
2023/03/30 08:34:11;;;;;;;39.67;7.47;;;;;;;12.89;100.00;100582.09;5026128;28;20029;-62
2023/03/30 08:36:37;;;;;;;36.33;5.90;;;;;;;12.93;100.00;100581.97;5026049;28;20044;-59
2023/03/30 08:39:03;;;;;;;41.88;6.28;;;;;;;13.11;100.00;100577.56;5008515;28;20021;-62
2023/03/30 08:41:28;;;;;;;36.58;5.55;;;;;;;13.15;100.00;100589.72;5026402;28;20421;-63
2023/03/30 08:43:55;;;;;;;37.60;5.95;;;;;;;13.21;100.00;100570.91;5026765;28;20057;-60
2023/03/30 08:46:20;;;;;;;36.83;6.18;;;;;;;13.27;100.00;100577.69;5008682;28;20045;-64
2023/03/30 08:48:47;;;;;;;32.30;6.65;;;;;;;13.26;100.00;100586.56;5008552;28;20017;-63
2023/03/30 08:51:29;;;;;;;37.15;6.38;;;;;;;13.46;100.00;100593.50;4975289;28;20471;-62
2023/03/30 08:54:00;;;;;;;38.75;6.18;;;;;;;13.47;100.00;100597.00;5026389;28;20025;-63
2023/03/30 08:56:39;;;;;;;31.23;6.05;;;;;;;13.42;100.00;100599.03;5008752;28;20510;-59
2023/03/30 08:59:38;;;;;;;37.33;6.35;;;;;;;13.55;100.00;100600.16;5008509;28;20109;-63
2023/03/30 09:02:17;;;;;;;32.75;5.63;;;;;;;13.74;100.00;100600.09;5026195;28;20485;-62
2023/03/30 09:04:45;;;;;;;;;;;;;;;13.80;100.00;100606.84;5026439;28;20507;-63
2023/03/30 09:07:19;;;;;;;36.67;6.35;;;;;;;14.00;100.00;100608.47;5024635;28;19921;-60
2023/03/30 09:09:46;;;;;;;36.33;6.00;;;;;;;14.05;100.00;100616.16;5008146;28;20476;-63
2023/03/30 09:12:17;;;;;;;39.90;5.95;;;;;;;14.18;100.00;100628.78;5025877;28;20048;-63
2023/03/30 09:14:47;;;;;;;42.30;6.45;;;;;;;14.33;100.00;100616.50;5026156;28;20099;-62
2023/03/30 09:17:20;;;;;;;33.53;6.18;;;;;;;14.44;100.00;100624.75;5008042;28;20466;-64
2023/03/30 09:20:08;;;;;;;40.92;5.90;;;;;;;14.57;100.00;100632.88;5008546;28;20034;-63
2023/03/30 09:22:40;;;;;;;31.30;6.13;;;;;;;14.70;100.00;100635.75;5024740;28;20033;-61
2023/03/30 09:25:34;;;;;;;38.90;5.53;;;;;;;14.82;100.00;100636.03;5025627;28;20365;-62
2023/03/30 09:28:07;;;;;;;36.30;5.88;;;;;;;14.83;100.00;100646.56;5022944;28;20112;-60
2023/03/30 09:30:44;;;;;;;42.15;5.85;;;;;;;14.85;100.00;100649.97;5025573;28;20033;-57
2023/03/30 09:33:26;;;;;;;35.42;5.80;;;;;;;14.98;100.00;100633.38;5007805;28;20072;-62
2023/03/30 09:36:10;;;;;;;39.25;6.60;;;;;;;14.81;100.00;100651.06;5025839;28;20036;-64
2023/03/30 09:38:37;;;;;;;39.58;6.00;;;;;;;14.72;100.00;100646.25;5025812;28;20033;-63
2023/03/30 09:41:09;;;;;;;34.40;6.22;;;;;;;14.84;100.00;100636.81;5025028;28;20095;-58
2023/03/30 09:43:42;;;;;;;37.35;7.65;;;;;;;14.74;100.00;100641.72;5008007;28;20031;-63
2023/03/30 09:46:08;;;;;;;36.28;6.50;;;;;;;14.60;100.00;100651.28;5007994;28;20076;-63
2023/03/30 09:48:46;;;;;;;42.20;6.10;;;;;;;14.37;100.00;100650.72;5025864;28;20017;-65
2023/03/30 09:51:18;;;;;;;36.78;7.55;;;;;;;14.54;100.00;100635.69;5024144;28;20017;-62
2023/03/30 09:53:45;;;;;;;43.85;6.50;;;;;;;14.44;100.00;100668.94;5024617;28;20523;-65
2023/03/30 09:56:26;;;;;;;37.58;6.82;;;;;;;14.37;100.00;100660.47;5024750;28;20069;-59
2023/03/30 09:58:52;;;;;;;33.78;6.28;;;;;;;14.42;100.00;100658.41;5025541;28;20501;-61
2023/03/30 10:01:19;;;;;;;34.03;5.47;;;;;;;14.36;100.00;100672.00;5025081;28;20101;-65
2023/03/30 10:04:04;;;;;;;37.22;5.68;;;;;;;14.45;100.00;100662.72;5024969;28;20026;-65
2023/03/30 10:06:30;;;;;;;32.65;4.82;;;;;;;14.70;100.00;100704.69;5024243;28;20041;-64
2023/03/30 10:08:55;;;;;;;35.22;5.82;;;;;;;14.60;100.00;100664.53;5007684;28;20024;-64
2023/03/30 10:11:37;;;;;;;40.20;5.57;;;;;;;14.78;100.00;100659.22;5007399;28;20027;-62
2023/03/30 10:14:04;;;;;;;34.78;6.15;;;;;;;15.10;100.00;100659.22;5007292;28;20039;-61
2023/03/30 10:16:32;;;;;;;29.60;6.00;;;;;;;15.66;100.00;100665.84;5007448;28;20104;-57
2023/03/30 10:19:01;;;;;;;37.08;5.97;;;;;;;15.63;100.00;100677.47;5007777;28;20068;-64
2023/03/30 10:21:35;;;;;;;29.60;5.57;;;;;;;15.89;100.00;100648.53;5024029;28;20105;-63
2023/03/30 10:24:03;;;;;;;35.22;6.68;;;;;;;15.75;100.00;100667.09;5024751;28;20443;-64
2023/03/30 10:26:29;;;;;;;34.15;6.15;;;;;;;15.53;100.00;100660.38;5024967;28;20548;-65
2023/03/30 10:28:59;;;;;;;36.75;5.78;;;;;;;15.44;100.00;100660.91;5025377;28;20117;-62
2023/03/30 10:31:26;;;;;;;35.90;6.22;;;;;;;15.34;100.00;100681.81;5007800;28;20503;-65
2023/03/30 10:33:55;;;;;;;36.40;5.65;;;;;;;15.32;100.00;100675.75;5025027;28;20468;-61
2023/03/30 10:36:22;;;;;;;29.58;5.32;;;;;;;15.45;100.00;100679.41;5006245;28;20034;-62
2023/03/30 10:38:48;;;;;;;31.85;5.85;;;;;;;15.64;100.00;100681.88;5025315;28;20064;-63
2023/03/30 10:41:19;;;;;;;32.08;5.30;;;;;;;15.79;100.00;100676.59;5007119;28;20043;-65
2023/03/30 10:43:44;;;;;;;34.80;5.82;;;;;;;15.77;100.00;100691.75;5024446;28;20034;-59
2023/03/30 10:46:21;;;;;;;26.08;5.75;;;;;;;15.54;100.00;100683.34;5006574;28;20018;-62
2023/03/30 10:49:14;;;;;;;33.33;4.72;;;;;;;15.46;100.00;100696.19;5007285;28;20022;-65
2023/03/30 10:51:57;;;;;;;28.48;4.90;;;;;;;15.34;100.00;100705.69;5024144;28;20120;-64
2023/03/30 10:54:34;;;;;;;37.08;5.43;;;;;;;15.37;100.00;100693.13;5029061;28;20384;-62
2023/03/30 10:57:10;;;;;;;26.95;4.78;;;;;;;15.44;100.00;100698.09;5011085;28;20141;-64
2023/03/30 11:00:00;;;;;;;27.63;4.68;;;;;;;15.71;100.00;100706.25;5010914;28;20625;-66
2023/03/30 11:02:53;;;;;;;31.05;5.25;;;;;;;15.78;100.00;100690.81;5028863;28;20025;-65
2023/03/30 11:05:27;;;;;;;29.83;5.18;;;;;;;15.70;100.00;100695.72;5027844;28;20554;-63
2023/03/30 11:08:15;;;;;;;24.50;5.40;;;;;;;15.84;100.00;100690.47;5006608;28;20042;-61
2023/03/30 11:10:43;;;;;;;35.38;5.90;;;;;;;15.83;100.00;100707.34;5007229;28;20029;-61
2023/03/30 11:13:20;;;;;;;24.15;4.53;;;;;;;15.82;100.00;100745.47;5008099;28;20476;-62
2023/03/30 11:15:54;;;;;;;25.73;5.13;;;;;;;15.58;100.00;100711.41;4990578;28;20026;-64
2023/03/30 11:18:27;;;;;;;29.00;4.88;;;;;;;15.29;100.00;100700.63;5008367;28;20025;-62
2023/03/30 11:21:02;;;;;;;30.13;5.78;;;;;;;15.38;100.00;100705.44;5006348;28;20029;-61
2023/03/30 11:23:58;;;;;;;33.42;5.95;;;;;;;15.44;100.00;100703.41;5007237;28;20030;-65